• Join FlightAware (Why Join?)
  • Login
  • US Flag 
04:20AM EDT


 

Airport Tracker/Info


-or-


 

Live Flight TrackerFlight Track Log ✈ LYM752 ✈ 03-Jan-2014 ✈ KDEN - KANK

Flight Track Log - Related Links

Times and Time Zones

All times are in EST time to prevent confusion due to time zone crossing. See the LYM752 flight status page for this flight to view local times or setup timezone preferences in your user account.

Time Position Orientation Groundspeed Altitude Reporting Facility
EST Latitude Longitude Course Direction KTS MPH feet Rate Location/Type
09:33AM 39.8167 -104.6667 180° South 124 143 6,500  Level Denver TRACON
09:34AM 39.7833 -104.6667 180° South 123 142 7,400 840 Climbing Denver TRACON
09:35AM 39.7419 -104.6839 198° South 123 142 8,200 660 Climbing Denver Center
09:36AM 39.7150 -104.6897 189° South 125 144 8,800 720 Climbing Denver Center
09:37AM 39.6703 -104.6975 188° South 131 151 9,700 780 Climbing Denver Center
09:38AM 39.6394 -104.7203 210° Southwest 128 147 10,500 780 Climbing Denver Center
09:39AM 39.6075 -104.7464 212° Southwest 133 153 11,400 780 Climbing Denver Center
09:40AM 39.5747 -104.7761 215° Southwest 134 154 12,200 720 Climbing Denver Center
09:41AM 39.5453 -104.8067 219° Southwest 137 158 12,900 660 Climbing Denver Center
09:42AM 39.5117 -104.8294 208° Southwest 137 158 13,600 720 Climbing Denver Center
09:43AM 39.4753 -104.8497 203° Southwest 142 163 14,400 780 Climbing Denver Center
09:44AM 39.4389 -104.8736 207° Southwest 146 168 15,200 720 Climbing Denver Center
09:45AM 39.4014 -104.9031 211° Southwest 146 168 15,900 600 Climbing Denver Center
09:46AM 39.3650 -104.9297 210° Southwest 150 173 16,500 240 Climbing Denver Center
09:47AM 39.3211 -104.9531 202° Southwest 168 193 16,500  Level Denver Center
09:48AM 39.2739 -104.9797 204° Southwest 184 212 16,500  Level Denver Center
09:49AM 39.2403 -105.0367 233° Southwest 183 211 16,500  Level Denver Center
09:50AM 39.2050 -105.0850 227° Southwest 184 212 16,600 -120 Climbing Denver Center
09:51AM 39.1703 -105.1331 227° Southwest 184 212 16,300 -180 Descending Denver Center
09:52AM 39.1317 -105.1767 221° Southwest 183 211 16,300 -60 Level Denver Center
09:53AM 39.1006 -105.2281 232° Southwest 180 207 16,200  Descending Denver Center
09:54AM 39.0656 -105.2794 229° Southwest 188 216 16,300  Climbing Denver Center
09:55AM 39.0300 -105.3292 227° Southwest 189 217 16,200 -60 Descending Denver Center
09:56AM 38.9972 -105.3783 229° Southwest 184 212 16,200  Level Denver Center
09:57AM 38.9664 -105.4267 231° Southwest 177 204 16,200 -60 Level Denver Center
09:58AM 38.9275 -105.4817 228° Southwest 174 200 16,100  Descending Denver Center
09:59AM 38.8986 -105.5208 227° Southwest 173 199 16,200 60 Climbing Denver Center